sensor_id;sensor_type;location;lat;lon;timestamp;P1;durP1;ratioP1;P2;durP2;ratioP2
67717;SDS011;54511;47.532;19.180;2022-07-29T00:00:32;4.50;;;3.40;;
67717;SDS011;54511;47.532;19.180;2022-07-29T00:03:17;6.50;;;3.70;;
67717;SDS011;54511;47.532;19.180;2022-07-29T00:05:45;6.00;;;3.53;;
67717;SDS011;54511;47.532;19.180;2022-07-29T00:08:15;5.93;;;3.70;;
67717;SDS011;54511;47.532;19.180;2022-07-29T00:10:42;6.00;;;3.80;;
67717;SDS011;54511;47.532;19.180;2022-07-29T00:13:26;5.50;;;3.72;;
67717;SDS011;54511;47.532;19.180;2022-07-29T00:16:13;6.72;;;3.60;;
67717;SDS011;54511;47.532;19.180;2022-07-29T00:19:01;6.18;;;3.60;;
67717;SDS011;54511;47.532;19.180;2022-07-29T00:21:45;4.28;;;3.60;;
67717;SDS011;54511;47.532;19.180;2022-07-29T00:24:14;5.07;;;3.30;;
67717;SDS011;54511;47.532;19.180;2022-07-29T00:27:01;6.30;;;3.47;;
67717;SDS011;54511;47.532;19.180;2022-07-29T00:29:28;4.68;;;3.10;;
67717;SDS011;54511;47.532;19.180;2022-07-29T00:32:15;5.05;;;3.40;;
67717;SDS011;54511;47.532;19.180;2022-07-29T00:34:59;7.12;;;3.65;;
67717;SDS011;54511;47.532;19.180;2022-07-29T00:37:43;5.45;;;3.55;;
67717;SDS011;54511;47.532;19.180;2022-07-29T00:40:14;4.12;;;3.20;;
67717;SDS011;54511;47.532;19.180;2022-07-29T00:42:41;5.80;;;3.45;;
67717;SDS011;54511;47.532;19.180;2022-07-29T00:45:28;5.05;;;3.70;;
67717;SDS011;54511;47.532;19.180;2022-07-29T00:47:57;5.80;;;3.80;;
67717;SDS011;54511;47.532;19.180;2022-07-29T00:50:24;5.97;;;3.58;;
67717;SDS011;54511;47.532;19.180;2022-07-29T00:52:51;4.65;;;3.50;;
67717;SDS011;54511;47.532;19.180;2022-07-29T00:55:20;5.18;;;3.67;;
67717;SDS011;54511;47.532;19.180;2022-07-29T00:57:47;4.75;;;3.50;;
67717;SDS011;54511;47.532;19.180;2022-07-29T01:00:16;5.60;;;3.92;;
67717;SDS011;54511;47.532;19.180;2022-07-29T01:02:44;6.82;;;3.53;;
67717;SDS011;54511;47.532;19.180;2022-07-29T01:05:29;4.43;;;3.35;;
67717;SDS011;54511;47.532;19.180;2022-07-29T01:07:57;5.93;;;3.35;;
67717;SDS011;54511;47.532;19.180;2022-07-29T01:10:26;5.18;;;3.85;;
67717;SDS011;54511;47.532;19.180;2022-07-29T01:12:56;5.80;;;3.78;;
67717;SDS011;54511;47.532;19.180;2022-07-29T01:15:24;5.03;;;3.40;;
67717;SDS011;54511;47.532;19.180;2022-07-29T01:18:11;4.40;;;3.53;;
67717;SDS011;54511;47.532;19.180;2022-07-29T01:20:48;5.47;;;3.67;;
67717;SDS011;54511;47.532;19.180;2022-07-29T01:26:37;6.12;;;3.85;;
67717;SDS011;54511;47.532;19.180;2022-07-29T01:29:12;6.20;;;3.97;;
67717;SDS011;54511;47.532;19.180;2022-07-29T01:31:43;5.68;;;3.28;;
67717;SDS011;54511;47.532;19.180;2022-07-29T01:34:17;5.15;;;3.50;;
67717;SDS011;54511;47.532;19.180;2022-07-29T01:36:48;4.45;;;3.75;;
67717;SDS011;54511;47.532;19.180;2022-07-29T01:39:49;6.45;;;3.92;;
67717;SDS011;54511;47.532;19.180;2022-07-29T01:42:23;5.53;;;3.42;;
67717;SDS011;54511;47.532;19.180;2022-07-29T01:45:04;7.63;;;3.97;;
67717;SDS011;54511;47.532;19.180;2022-07-29T01:47:37;7.47;;;3.92;;
67717;SDS011;54511;47.532;19.180;2022-07-29T01:50:08;6.93;;;4.03;;
67717;SDS011;54511;47.532;19.180;2022-07-29T01:52:38;7.03;;;4.10;;
67717;SDS011;54511;47.532;19.180;2022-07-29T01:55:13;8.23;;;3.92;;
67717;SDS011;54511;47.532;19.180;2022-07-29T01:57:54;7.45;;;3.60;;
67717;SDS011;54511;47.532;19.180;2022-07-29T02:00:27;4.28;;;3.33;;
67717;SDS011;54511;47.532;19.180;2022-07-29T02:03:19;5.18;;;3.72;;
67717;SDS011;54511;47.532;19.180;2022-07-29T02:05:54;7.68;;;3.85;;
67717;SDS011;54511;47.532;19.180;2022-07-29T02:08:45;5.95;;;4.15;;
67717;SDS011;54511;47.532;19.180;2022-07-29T02:11:13;5.45;;;3.75;;
67717;SDS011;54511;47.532;19.180;2022-07-29T02:13:40;4.85;;;3.65;;
67717;SDS011;54511;47.532;19.180;2022-07-29T02:16:09;6.85;;;3.90;;
67717;SDS011;54511;47.532;19.180;2022-07-29T02:18:37;6.82;;;3.90;;
67717;SDS011;54511;47.532;19.180;2022-07-29T02:21:06;6.12;;;3.62;;
67717;SDS011;54511;47.532;19.180;2022-07-29T02:23:43;4.95;;;3.47;;
67717;SDS011;54511;47.532;19.180;2022-07-29T02:26:32;7.03;;;3.83;;
67717;SDS011;54511;47.532;19.180;2022-07-29T02:28:59;9.57;;;4.00;;
67717;SDS011;54511;47.532;19.180;2022-07-29T02:31:33;5.43;;;3.72;;
67717;SDS011;54511;47.532;19.180;2022-07-29T02:34:02;9.98;;;3.90;;
67717;SDS011;54511;47.532;19.180;2022-07-29T02:36:30;5.32;;;3.72;;
67717;SDS011;54511;47.532;19.180;2022-07-29T02:38:58;6.55;;;3.70;;
67717;SDS011;54511;47.532;19.180;2022-07-29T02:41:28;9.50;;;4.40;;
67717;SDS011;54511;47.532;19.180;2022-07-29T02:43:58;5.70;;;3.90;;
67717;SDS011;54511;47.532;19.180;2022-07-29T02:46:31;6.47;;;3.60;;
67717;SDS011;54511;47.532;19.180;2022-07-29T02:49:07;4.53;;;3.62;;
67717;SDS011;54511;47.532;19.180;2022-07-29T02:51:41;6.68;;;3.87;;
67717;SDS011;54511;47.532;19.180;2022-07-29T02:54:25;8.40;;;3.80;;
67717;SDS011;54511;47.532;19.180;2022-07-29T02:57:14;6.68;;;3.75;;
67717;SDS011;54511;47.532;19.180;2022-07-29T02:59:45;4.37;;;3.35;;
67717;SDS011;54511;47.532;19.180;2022-07-29T03:02:16;7.50;;;4.07;;
67717;SDS011;54511;47.532;19.180;2022-07-29T03:04:45;5.18;;;3.90;;
67717;SDS011;54511;47.532;19.180;2022-07-29T03:07:14;10.02;;;4.00;;
67717;SDS011;54511;47.532;19.180;2022-07-29T03:09:44;5.47;;;3.78;;
67717;SDS011;54511;47.532;19.180;2022-07-29T03:12:13;8.52;;;4.22;;
67717;SDS011;54511;47.532;19.180;2022-07-29T03:14:40;7.05;;;4.07;;
67717;SDS011;54511;47.532;19.180;2022-07-29T03:17:08;6.90;;;4.00;;
67717;SDS011;54511;47.532;19.180;2022-07-29T03:19:37;6.15;;;4.07;;
67717;SDS011;54511;47.532;19.180;2022-07-29T03:22:05;6.80;;;3.90;;
67717;SDS011;54511;47.532;19.180;2022-07-29T03:24:33;7.90;;;4.07;;
67717;SDS011;54511;47.532;19.180;2022-07-29T03:27:02;6.35;;;4.10;;
67717;SDS011;54511;47.532;19.180;2022-07-29T03:29:30;6.30;;;3.83;;
67717;SDS011;54511;47.532;19.180;2022-07-29T03:31:58;6.03;;;3.87;;
67717;SDS011;54511;47.532;19.180;2022-07-29T03:34:27;8.88;;;4.30;;
67717;SDS011;54511;47.532;19.180;2022-07-29T03:36:55;5.60;;;4.03;;
67717;SDS011;54511;47.532;19.180;2022-07-29T03:39:24;5.72;;;3.60;;
67717;SDS011;54511;47.532;19.180;2022-07-29T03:41:54;7.03;;;3.83;;
67717;SDS011;54511;47.532;19.180;2022-07-29T03:44:36;8.85;;;3.90;;
67717;SDS011;54511;47.532;19.180;2022-07-29T03:47:04;9.20;;;4.22;;
67717;SDS011;54511;47.532;19.180;2022-07-29T03:49:34;9.80;;;4.28;;
67717;SDS011;54511;47.532;19.180;2022-07-29T03:52:07;6.80;;;4.03;;
67717;SDS011;54511;47.532;19.180;2022-07-29T03:57:01;7.68;;;4.10;;
67717;SDS011;54511;47.532;19.180;2022-07-29T03:59:29;6.53;;;3.90;;
67717;SDS011;54511;47.532;19.180;2022-07-29T04:01:58;6.05;;;4.37;;
67717;SDS011;54511;47.532;19.180;2022-07-29T04:04:25;7.97;;;4.10;;
67717;SDS011;54511;47.532;19.180;2022-07-29T04:06:55;8.55;;;4.32;;
67717;SDS011;54511;47.532;19.180;2022-07-29T04:09:24;5.75;;;3.97;;
67717;SDS011;54511;47.532;19.180;2022-07-29T04:11:52;9.07;;;4.30;;
67717;SDS011;54511;47.532;19.180;2022-07-29T04:14:19;7.28;;;4.40;;
67717;SDS011;54511;47.532;19.180;2022-07-29T04:16:48;6.45;;;3.95;;
67717;SDS011;54511;47.532;19.180;2022-07-29T04:19:14;14.48;;;4.72;;
67717;SDS011;54511;47.532;19.180;2022-07-29T04:21:41;8.35;;;3.92;;
67717;SDS011;54511;47.532;19.180;2022-07-29T04:24:10;7.65;;;4.32;;
67717;SDS011;54511;47.532;19.180;2022-07-29T04:26:40;7.95;;;4.12;;
67717;SDS011;54511;47.532;19.180;2022-07-29T04:29:08;8.75;;;4.50;;
67717;SDS011;54511;47.532;19.180;2022-07-29T04:31:34;6.15;;;3.85;;
67717;SDS011;54511;47.532;19.180;2022-07-29T04:34:01;6.57;;;4.22;;
67717;SDS011;54511;47.532;19.180;2022-07-29T04:36:28;8.20;;;4.12;;
67717;SDS011;54511;47.532;19.180;2022-07-29T04:38:55;7.32;;;4.60;;
67717;SDS011;54511;47.532;19.180;2022-07-29T04:41:23;7.05;;;4.22;;
67717;SDS011;54511;47.532;19.180;2022-07-29T04:43:52;8.73;;;4.80;;
67717;SDS011;54511;47.532;19.180;2022-07-29T04:46:20;8.35;;;4.20;;
67717;SDS011;54511;47.532;19.180;2022-07-29T04:48:47;7.45;;;3.85;;
67717;SDS011;54511;47.532;19.180;2022-07-29T04:51:14;6.20;;;4.20;;
67717;SDS011;54511;47.532;19.180;2022-07-29T04:53:43;8.07;;;4.22;;
67717;SDS011;54511;47.532;19.180;2022-07-29T04:56:11;7.43;;;3.90;;
67717;SDS011;54511;47.532;19.180;2022-07-29T04:58:37;6.20;;;3.85;;
67717;SDS011;54511;47.532;19.180;2022-07-29T05:01:06;6.35;;;3.95;;
67717;SDS011;54511;47.532;19.180;2022-07-29T05:03:34;9.35;;;4.10;;
67717;SDS011;54511;47.532;19.180;2022-07-29T05:06:01;7.53;;;4.45;;
67717;SDS011;54511;47.532;19.180;2022-07-29T05:08:28;6.00;;;3.62;;
67717;SDS011;54511;47.532;19.180;2022-07-29T05:10:55;8.35;;;4.00;;
67717;SDS011;54511;47.532;19.180;2022-07-29T05:13:22;6.53;;;3.78;;
67717;SDS011;54511;47.532;19.180;2022-07-29T05:15:49;9.35;;;3.97;;
67717;SDS011;54511;47.532;19.180;2022-07-29T05:18:17;9.07;;;3.95;;
67717;SDS011;54511;47.532;19.180;2022-07-29T05:20:44;11.70;;;4.30;;
67717;SDS011;54511;47.532;19.180;2022-07-29T05:23:22;6.60;;;4.12;;
67717;SDS011;54511;47.532;19.180;2022-07-29T05:25:51;8.65;;;4.10;;
67717;SDS011;54511;47.532;19.180;2022-07-29T05:28:37;10.15;;;4.28;;
67717;SDS011;54511;47.532;19.180;2022-07-29T05:31:05;7.95;;;3.92;;
67717;SDS011;54511;47.532;19.180;2022-07-29T05:33:42;9.48;;;4.25;;
67717;SDS011;54511;47.532;19.180;2022-07-29T05:36:10;6.68;;;3.87;;
67717;SDS011;54511;47.532;19.180;2022-07-29T05:38:37;8.57;;;3.97;;
67717;SDS011;54511;47.532;19.180;2022-07-29T05:41:04;7.53;;;3.97;;
67717;SDS011;54511;47.532;19.180;2022-07-29T05:43:33;6.82;;;3.92;;
67717;SDS011;54511;47.532;19.180;2022-07-29T05:46:00;8.18;;;4.30;;
67717;SDS011;54511;47.532;19.180;2022-07-29T05:48:49;8.40;;;4.22;;
67717;SDS011;54511;47.532;19.180;2022-07-29T05:51:55;9.90;;;4.25;;
67717;SDS011;54511;47.532;19.180;2022-07-29T05:54:23;8.60;;;4.43;;
67717;SDS011;54511;47.532;19.180;2022-07-29T05:57:09;8.07;;;3.83;;
67717;SDS011;54511;47.532;19.180;2022-07-29T05:59:43;6.78;;;4.28;;
67717;SDS011;54511;47.532;19.180;2022-07-29T06:02:12;8.57;;;4.03;;
67717;SDS011;54511;47.532;19.180;2022-07-29T06:04:41;8.90;;;4.50;;
67717;SDS011;54511;47.532;19.180;2022-07-29T06:07:08;16.75;;;4.32;;
67717;SDS011;54511;47.532;19.180;2022-07-29T06:09:36;8.02;;;4.20;;
67717;SDS011;54511;47.532;19.180;2022-07-29T06:12:10;8.40;;;4.70;;
67717;SDS011;54511;47.532;19.180;2022-07-29T06:14:38;8.23;;;4.32;;
67717;SDS011;54511;47.532;19.180;2022-07-29T06:17:25;7.95;;;4.32;;
67717;SDS011;54511;47.532;19.180;2022-07-29T06:19:53;8.30;;;4.60;;
67717;SDS011;54511;47.532;19.180;2022-07-29T06:22:20;7.68;;;4.35;;
67717;SDS011;54511;47.532;19.180;2022-07-29T06:24:47;7.97;;;4.18;;
67717;SDS011;54511;47.532;19.180;2022-07-29T06:27:15;7.50;;;4.62;;
67717;SDS011;54511;47.532;19.180;2022-07-29T06:29:42;8.38;;;4.82;;
67717;SDS011;54511;47.532;19.180;2022-07-29T06:32:31;6.90;;;4.90;;
67717;SDS011;54511;47.532;19.180;2022-07-29T06:35:09;7.40;;;5.20;;
67717;SDS011;54511;47.532;19.180;2022-07-29T06:37:58;7.90;;;4.93;;
67717;SDS011;54511;47.532;19.180;2022-07-29T06:40:43;7.78;;;5.30;;
67717;SDS011;54511;47.532;19.180;2022-07-29T06:43:53;8.07;;;4.95;;
67717;SDS011;54511;47.532;19.180;2022-07-29T06:46:20;9.45;;;5.22;;
67717;SDS011;54511;47.532;19.180;2022-07-29T06:48:48;6.57;;;4.55;;
67717;SDS011;54511;47.532;19.180;2022-07-29T06:51:22;6.18;;;4.85;;
67717;SDS011;54511;47.532;19.180;2022-07-29T06:53:54;9.88;;;5.45;;
67717;SDS011;54511;47.532;19.180;2022-07-29T06:56:22;7.20;;;5.30;;
67717;SDS011;54511;47.532;19.180;2022-07-29T06:58:50;8.63;;;5.07;;
67717;SDS011;54511;47.532;19.180;2022-07-29T07:01:17;6.75;;;5.03;;
67717;SDS011;54511;47.532;19.180;2022-07-29T07:04:04;5.95;;;4.72;;
67717;SDS011;54511;47.532;19.180;2022-07-29T07:06:51;8.88;;;4.75;;
67717;SDS011;54511;47.532;19.180;2022-07-29T07:09:20;11.02;;;5.35;;
67717;SDS011;54511;47.532;19.180;2022-07-29T07:11:50;6.78;;;5.07;;
67717;SDS011;54511;47.532;19.180;2022-07-29T07:14:17;11.60;;;5.03;;
67717;SDS011;54511;47.532;19.180;2022-07-29T07:16:45;7.65;;;4.93;;
67717;SDS011;54511;47.532;19.180;2022-07-29T07:19:36;8.68;;;5.10;;
67717;SDS011;54511;47.532;19.180;2022-07-29T07:24:32;8.63;;;5.10;;
67717;SDS011;54511;47.532;19.180;2022-07-29T07:27:19;6.82;;;4.62;;
67717;SDS011;54511;47.532;19.180;2022-07-29T07:30:04;7.15;;;5.55;;
67717;SDS011;54511;47.532;19.180;2022-07-29T07:33:12;8.52;;;5.03;;
67717;SDS011;54511;47.532;19.180;2022-07-29T07:35:39;7.07;;;5.32;;
67717;SDS011;54511;47.532;19.180;2022-07-29T07:38:49;8.38;;;5.20;;
67717;SDS011;54511;47.532;19.180;2022-07-29T07:41:17;9.20;;;5.22;;
67717;SDS011;54511;47.532;19.180;2022-07-29T07:43:45;7.03;;;4.95;;
67717;SDS011;54511;47.532;19.180;2022-07-29T07:46:33;10.35;;;5.37;;
67717;SDS011;54511;47.532;19.180;2022-07-29T07:49:00;7.57;;;5.28;;
67717;SDS011;54511;47.532;19.180;2022-07-29T07:51:27;6.03;;;4.90;;
67717;SDS011;54511;47.532;19.180;2022-07-29T07:53:57;7.00;;;5.05;;
67717;SDS011;54511;47.532;19.180;2022-07-29T07:56:24;6.13;;;4.80;;
67717;SDS011;54511;47.532;19.180;2022-07-29T07:59:11;7.75;;;5.32;;
67717;SDS011;54511;47.532;19.180;2022-07-29T08:01:58;8.30;;;5.07;;
67717;SDS011;54511;47.532;19.180;2022-07-29T08:04:26;10.20;;;5.30;;
67717;SDS011;54511;47.532;19.180;2022-07-29T08:06:54;8.32;;;5.25;;
67717;SDS011;54511;47.532;19.180;2022-07-29T08:09:31;6.95;;;5.00;;
67717;SDS011;54511;47.532;19.180;2022-07-29T08:12:00;6.75;;;5.40;;
67717;SDS011;54511;47.532;19.180;2022-07-29T08:14:38;7.22;;;5.35;;
67717;SDS011;54511;47.532;19.180;2022-07-29T08:17:24;8.82;;;5.47;;
67717;SDS011;54511;47.532;19.180;2022-07-29T08:20:11;8.68;;;5.65;;
67717;SDS011;54511;47.532;19.180;2022-07-29T08:22:49;7.07;;;5.25;;
67717;SDS011;54511;47.532;19.180;2022-07-29T08:27:48;7.18;;;5.43;;
67717;SDS011;54511;47.532;19.180;2022-07-29T08:30:16;7.90;;;4.93;;
67717;SDS011;54511;47.532;19.180;2022-07-29T08:33:23;7.05;;;5.20;;
67717;SDS011;54511;47.532;19.180;2022-07-29T08:35:51;11.10;;;5.47;;
67717;SDS011;54511;47.532;19.180;2022-07-29T08:38:37;7.55;;;5.60;;
67717;SDS011;54511;47.532;19.180;2022-07-29T08:41:27;8.63;;;5.15;;
67717;SDS011;54511;47.532;19.180;2022-07-29T08:44:34;7.65;;;5.65;;
67717;SDS011;54511;47.532;19.180;2022-07-29T08:47:30;8.52;;;5.60;;
67717;SDS011;54511;47.532;19.180;2022-07-29T08:50:38;8.77;;;5.50;;
67717;SDS011;54511;47.532;19.180;2022-07-29T08:53:46;11.32;;;5.87;;
67717;SDS011;54511;47.532;19.180;2022-07-29T08:56:53;8.20;;;5.87;;
67717;SDS011;54511;47.532;19.180;2022-07-29T09:00:20;7.50;;;5.35;;
67717;SDS011;54511;47.532;19.180;2022-07-29T09:03:47;6.55;;;5.10;;
67717;SDS011;54511;47.532;19.180;2022-07-29T09:07:16;8.52;;;5.60;;
67717;SDS011;54511;47.532;19.180;2022-07-29T09:10:23;5.95;;;4.90;;
67717;SDS011;54511;47.532;19.180;2022-07-29T09:13:51;7.70;;;5.28;;
67717;SDS011;54511;47.532;19.180;2022-07-29T09:17:20;8.43;;;5.12;;
67717;SDS011;54511;47.532;19.180;2022-07-29T09:20:50;7.15;;;5.10;;
67717;SDS011;54511;47.532;19.180;2022-07-29T09:23:59;6.45;;;4.75;;
67717;SDS011;54511;47.532;19.180;2022-07-29T09:27:09;7.22;;;5.10;;
67717;SDS011;54511;47.532;19.180;2022-07-29T09:30:18;9.27;;;5.25;;
67717;SDS011;54511;47.532;19.180;2022-07-29T09:33:48;9.65;;;4.78;;
67717;SDS011;54511;47.532;19.180;2022-07-29T09:37:25;6.00;;;4.50;;
67717;SDS011;54511;47.532;19.180;2022-07-29T09:40:27;6.72;;;4.55;;
67717;SDS011;54511;47.532;19.180;2022-07-29T09:44:02;6.87;;;4.57;;
67717;SDS011;54511;47.532;19.180;2022-07-29T09:47:07;4.82;;;4.30;;
67717;SDS011;54511;47.532;19.180;2022-07-29T09:50:19;5.20;;;3.97;;
67717;SDS011;54511;47.532;19.180;2022-07-29T09:53:46;8.13;;;4.32;;
67717;SDS011;54511;47.532;19.180;2022-07-29T09:56:39;7.00;;;4.50;;
67717;SDS011;54511;47.532;19.180;2022-07-29T09:59:51;6.00;;;4.32;;
67717;SDS011;54511;47.532;19.180;2022-07-29T10:03:22;9.27;;;4.00;;
67717;SDS011;54511;47.532;19.180;2022-07-29T10:06:06;7.78;;;3.85;;
67717;SDS011;54511;47.532;19.180;2022-07-29T10:09:38;6.80;;;4.40;;
67717;SDS011;54511;47.532;19.180;2022-07-29T10:13:12;6.68;;;3.78;;
67717;SDS011;54511;47.532;19.180;2022-07-29T10:16:38;5.12;;;4.00;;
67717;SDS011;54511;47.532;19.180;2022-07-29T10:20:10;5.30;;;4.03;;
67717;SDS011;54511;47.532;19.180;2022-07-29T10:23:17;5.53;;;3.92;;
67717;SDS011;54511;47.532;19.180;2022-07-29T10:26:46;6.25;;;4.00;;
67717;SDS011;54511;47.532;19.180;2022-07-29T10:29:59;5.65;;;4.20;;
67717;SDS011;54511;47.532;19.180;2022-07-29T10:33:42;7.30;;;4.78;;
67717;SDS011;54511;47.532;19.180;2022-07-29T10:37:11;5.37;;;4.15;;
67717;SDS011;54511;47.532;19.180;2022-07-29T10:40:44;6.55;;;4.18;;
67717;SDS011;54511;47.532;19.180;2022-07-29T10:44:14;9.65;;;4.00;;
67717;SDS011;54511;47.532;19.180;2022-07-29T10:47:21;6.60;;;4.00;;
67717;SDS011;54511;47.532;19.180;2022-07-29T10:50:28;6.53;;;4.05;;
67717;SDS011;54511;47.532;19.180;2022-07-29T10:53:50;6.07;;;3.97;;
67717;SDS011;54511;47.532;19.180;2022-07-29T10:56:22;6.50;;;4.20;;
67717;SDS011;54511;47.532;19.180;2022-07-29T10:59:29;6.65;;;3.87;;
67717;SDS011;54511;47.532;19.180;2022-07-29T11:02:02;5.45;;;3.70;;
67717;SDS011;54511;47.532;19.180;2022-07-29T11:05:51;6.65;;;4.10;;
67717;SDS011;54511;47.532;19.180;2022-07-29T11:09:22;5.32;;;3.53;;
67717;SDS011;54511;47.532;19.180;2022-07-29T11:12:47;6.15;;;4.12;;
67717;SDS011;54511;47.532;19.180;2022-07-29T11:15:55;6.30;;;4.20;;
67717;SDS011;54511;47.532;19.180;2022-07-29T11:19:21;7.15;;;4.00;;
67717;SDS011;54511;47.532;19.180;2022-07-29T11:22:09;6.22;;;4.20;;
67717;SDS011;54511;47.532;19.180;2022-07-29T11:25:40;6.37;;;4.37;;
67717;SDS011;54511;47.532;19.180;2022-07-29T11:28:09;5.28;;;4.10;;
67717;SDS011;54511;47.532;19.180;2022-07-29T11:34:25;7.12;;;4.20;;
67717;SDS011;54511;47.532;19.180;2022-07-29T11:41:25;5.82;;;3.97;;
67717;SDS011;54511;47.532;19.180;2022-07-29T11:48:01;6.32;;;4.10;;
67717;SDS011;54511;47.532;19.180;2022-07-29T11:51:09;4.37;;;3.97;;
67717;SDS011;54511;47.532;19.180;2022-07-29T11:54:24;8.00;;;3.87;;
67717;SDS011;54511;47.532;19.180;2022-07-29T11:57:34;5.80;;;4.00;;
67717;SDS011;54511;47.532;19.180;2022-07-29T12:01:01;5.78;;;3.42;;
67717;SDS011;54511;47.532;19.180;2022-07-29T12:03:30;5.78;;;3.97;;
67717;SDS011;54511;47.532;19.180;2022-07-29T12:06:19;4.65;;;3.90;;
67717;SDS011;54511;47.532;19.180;2022-07-29T12:09:06;6.80;;;3.92;;
67717;SDS011;54511;47.532;19.180;2022-07-29T12:12:15;7.22;;;4.05;;
67717;SDS011;54511;47.532;19.180;2022-07-29T12:15:10;4.80;;;3.65;;
67717;SDS011;54511;47.532;19.180;2022-07-29T12:17:43;7.50;;;3.95;;
67717;SDS011;54511;47.532;19.180;2022-07-29T12:20:30;5.07;;;3.55;;
67717;SDS011;54511;47.532;19.180;2022-07-29T12:23:26;6.10;;;3.80;;
67717;SDS011;54511;47.532;19.180;2022-07-29T12:25:53;5.62;;;3.72;;
67717;SDS011;54511;47.532;19.180;2022-07-29T12:28:26;5.72;;;3.72;;
67717;SDS011;54511;47.532;19.180;2022-07-29T12:31:02;6.07;;;3.53;;
67717;SDS011;54511;47.532;19.180;2022-07-29T12:33:30;4.43;;;3.60;;
67717;SDS011;54511;47.532;19.180;2022-07-29T12:36:25;6.68;;;3.53;;
67717;SDS011;54511;47.532;19.180;2022-07-29T12:39:13;6.20;;;3.70;;
67717;SDS011;54511;47.532;19.180;2022-07-29T12:41:42;5.82;;;3.72;;
67717;SDS011;54511;47.532;19.180;2022-07-29T12:44:48;4.53;;;4.05;;
67717;SDS011;54511;47.532;19.180;2022-07-29T12:47:50;4.55;;;3.60;;
67717;SDS011;54511;47.532;19.180;2022-07-29T12:54:01;5.87;;;3.70;;
67717;SDS011;54511;47.532;19.180;2022-07-29T12:57:05;5.37;;;3.90;;
67717;SDS011;54511;47.532;19.180;2022-07-29T13:00:35;9.10;;;3.80;;
67717;SDS011;54511;47.532;19.180;2022-07-29T13:04:05;6.93;;;3.55;;
67717;SDS011;54511;47.532;19.180;2022-07-29T13:07:34;4.30;;;3.70;;
67717;SDS011;54511;47.532;19.180;2022-07-29T13:10:41;5.87;;;4.05;;
67717;SDS011;54511;47.532;19.180;2022-07-29T13:13:51;4.32;;;3.70;;
67717;SDS011;54511;47.532;19.180;2022-07-29T13:16:59;5.97;;;3.90;;
67717;SDS011;54511;47.532;19.180;2022-07-29T13:19:33;4.45;;;3.90;;
67717;SDS011;54511;47.532;19.180;2022-07-29T13:23:00;8.35;;;4.03;;
67717;SDS011;54511;47.532;19.180;2022-07-29T13:25:32;6.15;;;3.90;;
67717;SDS011;54511;47.532;19.180;2022-07-29T13:28:39;6.15;;;4.12;;
67717;SDS011;54511;47.532;19.180;2022-07-29T13:31:47;6.95;;;3.70;;
67717;SDS011;54511;47.532;19.180;2022-07-29T13:35:13;6.85;;;3.90;;
67717;SDS011;54511;47.532;19.180;2022-07-29T13:38:01;4.70;;;4.00;;
67717;SDS011;54511;47.532;19.180;2022-07-29T13:40:49;5.18;;;3.90;;
67717;SDS011;54511;47.532;19.180;2022-07-29T13:43:56;5.68;;;3.87;;
67717;SDS011;54511;47.532;19.180;2022-07-29T13:46:23;5.15;;;3.47;;
67717;SDS011;54511;47.532;19.180;2022-07-29T13:49:12;8.32;;;3.75;;
67717;SDS011;54511;47.532;19.180;2022-07-29T13:52:00;6.20;;;3.83;;
67717;SDS011;54511;47.532;19.180;2022-07-29T13:54:28;6.20;;;4.00;;
67717;SDS011;54511;47.532;19.180;2022-07-29T13:57:15;4.87;;;3.70;;
67717;SDS011;54511;47.532;19.180;2022-07-29T14:00:24;5.57;;;3.92;;
67717;SDS011;54511;47.532;19.180;2022-07-29T14:03:02;6.12;;;3.80;;
67717;SDS011;54511;47.532;19.180;2022-07-29T14:05:40;8.70;;;4.07;;
67717;SDS011;54511;47.532;19.180;2022-07-29T14:08:33;7.07;;;4.20;;
67717;SDS011;54511;47.532;19.180;2022-07-29T14:11:00;7.78;;;4.20;;
67717;SDS011;54511;47.532;19.180;2022-07-29T14:13:27;6.10;;;3.95;;
67717;SDS011;54511;47.532;19.180;2022-07-29T14:15:54;8.25;;;3.80;;
67717;SDS011;54511;47.532;19.180;2022-07-29T14:18:22;5.03;;;4.00;;
67717;SDS011;54511;47.532;19.180;2022-07-29T14:20:50;5.32;;;4.30;;
67717;SDS011;54511;47.532;19.180;2022-07-29T14:23:20;8.27;;;4.25;;
67717;SDS011;54511;47.532;19.180;2022-07-29T14:25:47;4.93;;;3.85;;
67717;SDS011;54511;47.532;19.180;2022-07-29T14:28:55;5.70;;;3.90;;
67717;SDS011;54511;47.532;19.180;2022-07-29T14:31:42;4.30;;;3.80;;
67717;SDS011;54511;47.532;19.180;2022-07-29T14:34:10;6.30;;;4.25;;
67717;SDS011;54511;47.532;19.180;2022-07-29T14:36:51;5.53;;;3.73;;
67717;SDS011;54511;47.532;19.180;2022-07-29T14:39:58;7.12;;;3.83;;
67717;SDS011;54511;47.532;19.180;2022-07-29T14:42:45;6.60;;;4.07;;
67717;SDS011;54511;47.532;19.180;2022-07-29T14:45:30;6.05;;;4.07;;
67717;SDS011;54511;47.532;19.180;2022-07-29T14:47:58;6.55;;;4.10;;
67717;SDS011;54511;47.532;19.180;2022-07-29T14:50:46;4.68;;;3.80;;
67717;SDS011;54511;47.532;19.180;2022-07-29T14:53:39;5.70;;;4.18;;
67717;SDS011;54511;47.532;19.180;2022-07-29T14:56:10;4.60;;;4.18;;
67717;SDS011;54511;47.532;19.180;2022-07-29T14:58:57;7.80;;;4.30;;
67717;SDS011;54511;47.532;19.180;2022-07-29T15:01:45;8.35;;;4.57;;
67717;SDS011;54511;47.532;19.180;2022-07-29T15:04:32;6.90;;;4.72;;
67717;SDS011;54511;47.532;19.180;2022-07-29T15:07:40;8.32;;;4.90;;
67717;SDS011;54511;47.532;19.180;2022-07-29T15:11:08;5.87;;;5.05;;
67717;SDS011;54511;47.532;19.180;2022-07-29T15:14:28;8.35;;;5.35;;
67717;SDS011;54511;47.532;19.180;2022-07-29T15:17:41;8.02;;;4.97;;
67717;SDS011;54511;47.532;19.180;2022-07-29T15:20:53;6.65;;;4.97;;
67717;SDS011;54511;47.532;19.180;2022-07-29T15:24:23;7.85;;;4.90;;
67717;SDS011;54511;47.532;19.180;2022-07-29T15:27:36;7.15;;;5.43;;
67717;SDS011;54511;47.532;19.180;2022-07-29T15:31:12;9.23;;;6.68;;
67717;SDS011;54511;47.532;19.180;2022-07-29T15:34:20;7.87;;;5.60;;
67717;SDS011;54511;47.532;19.180;2022-07-29T15:37:09;10.80;;;7.50;;
67717;SDS011;54511;47.532;19.180;2022-07-29T15:39:56;10.63;;;7.20;;
67717;SDS011;54511;47.532;19.180;2022-07-29T15:43:06;9.07;;;7.20;;
67717;SDS011;54511;47.532;19.180;2022-07-29T15:46:15;10.35;;;7.95;;
67717;SDS011;54511;47.532;19.180;2022-07-29T15:49:51;8.93;;;6.28;;
67717;SDS011;54511;47.532;19.180;2022-07-29T15:53:00;8.98;;;6.12;;
67717;SDS011;54511;47.532;19.180;2022-07-29T15:56:29;10.77;;;6.20;;
67717;SDS011;54511;47.532;19.180;2022-07-29T16:03:00;10.00;;;5.95;;
67717;SDS011;54511;47.532;19.180;2022-07-29T16:06:04;7.45;;;5.93;;
67717;SDS011;54511;47.532;19.180;2022-07-29T16:08:52;6.50;;;5.45;;
67717;SDS011;54511;47.532;19.180;2022-07-29T16:12:20;7.00;;;5.10;;
67717;SDS011;54511;47.532;19.180;2022-07-29T16:15:14;8.45;;;5.75;;
67717;SDS011;54511;47.532;19.180;2022-07-29T16:18:24;8.15;;;5.75;;
67717;SDS011;54511;47.532;19.180;2022-07-29T16:21:12;9.43;;;5.80;;
67717;SDS011;54511;47.532;19.180;2022-07-29T16:24:01;8.68;;;4.93;;
67717;SDS011;54511;47.532;19.180;2022-07-29T16:27:08;5.50;;;4.62;;
67717;SDS011;54511;47.532;19.180;2022-07-29T16:30:17;10.48;;;5.18;;
67717;SDS011;54511;47.532;19.180;2022-07-29T16:33:48;7.57;;;4.95;;
67717;SDS011;54511;47.532;19.180;2022-07-29T16:39:44;9.38;;;5.20;;
67717;SDS011;54511;47.532;19.180;2022-07-29T16:42:52;6.03;;;4.45;;
67717;SDS011;54511;47.532;19.180;2022-07-29T16:46:00;5.62;;;4.62;;
67717;SDS011;54511;47.532;19.180;2022-07-29T16:48:57;5.95;;;4.55;;
67717;SDS011;54511;47.532;19.180;2022-07-29T16:51:44;11.60;;;4.87;;
67717;SDS011;54511;47.532;19.180;2022-07-29T16:54:31;6.45;;;4.65;;
67717;SDS011;54511;47.532;19.180;2022-07-29T16:57:38;6.70;;;4.68;;